sensor_id;sensor_type;location;lat;lon;timestamp;temperature;humidity
29241;DHT22;16268;49.880;8.648;2023-05-16T00:01:20;15.20;99.90
29241;DHT22;16268;49.880;8.648;2023-05-16T00:03:46;15.20;99.90
29241;DHT22;16268;49.880;8.648;2023-05-16T00:06:15;15.20;99.90
29241;DHT22;16268;49.880;8.648;2023-05-16T00:08:44;15.10;99.90
29241;DHT22;16268;49.880;8.648;2023-05-16T00:11:12;15.10;99.90
29241;DHT22;16268;49.880;8.648;2023-05-16T00:13:38;15.10;99.90
29241;DHT22;16268;49.880;8.648;2023-05-16T00:16:06;15.20;99.90
29241;DHT22;16268;49.880;8.648;2023-05-16T00:18:32;15.10;99.90
29241;DHT22;16268;49.880;8.648;2023-05-16T00:21:00;15.10;99.90
29241;DHT22;16268;49.880;8.648;2023-05-16T00:23:26;15.00;99.90
29241;DHT22;16268;49.880;8.648;2023-05-16T00:25:52;15.00;99.90
29241;DHT22;16268;49.880;8.648;2023-05-16T00:28:17;15.00;99.90
29241;DHT22;16268;49.880;8.648;2023-05-16T00:30:45;14.90;99.90
29241;DHT22;16268;49.880;8.648;2023-05-16T00:33:14;14.90;99.90
29241;DHT22;16268;49.880;8.648;2023-05-16T00:35:40;14.80;99.90
29241;DHT22;16268;49.880;8.648;2023-05-16T00:38:15;14.80;99.90
29241;DHT22;16268;49.880;8.648;2023-05-16T00:40:41;14.80;99.90
29241;DHT22;16268;49.880;8.648;2023-05-16T00:43:07;14.70;99.90
29241;DHT22;16268;49.880;8.648;2023-05-16T00:45:35;14.60;99.90
29241;DHT22;16268;49.880;8.648;2023-05-16T00:48:01;14.50;99.90
29241;DHT22;16268;49.880;8.648;2023-05-16T00:50:29;14.50;99.90
29241;DHT22;16268;49.880;8.648;2023-05-16T00:52:57;14.50;99.90
29241;DHT22;16268;49.880;8.648;2023-05-16T00:55:23;14.50;99.90
29241;DHT22;16268;49.880;8.648;2023-05-16T00:57:52;14.50;99.90
29241;DHT22;16268;49.880;8.648;2023-05-16T01:00:23;14.50;99.90
29241;DHT22;16268;49.880;8.648;2023-05-16T01:02:49;14.50;99.90
29241;DHT22;16268;49.880;8.648;2023-05-16T01:05:18;14.50;99.90
29241;DHT22;16268;49.880;8.648;2023-05-16T01:07:49;14.50;99.90
29241;DHT22;16268;49.880;8.648;2023-05-16T01:10:15;14.50;99.90
29241;DHT22;16268;49.880;8.648;2023-05-16T01:12:59;14.50;99.90
29241;DHT22;16268;49.880;8.648;2023-05-16T01:16:05;14.50;99.90
29241;DHT22;16268;49.880;8.648;2023-05-16T01:18:56;14.50;99.90
29241;DHT22;16268;49.880;8.648;2023-05-16T01:21:54;14.50;99.90
29241;DHT22;16268;49.880;8.648;2023-05-16T01:24:32;14.50;99.90
29241;DHT22;16268;49.880;8.648;2023-05-16T01:27:06;14.50;99.90
29241;DHT22;16268;49.880;8.648;2023-05-16T01:29:32;14.60;99.90
29241;DHT22;16268;49.880;8.648;2023-05-16T01:32:00;14.60;99.90
29241;DHT22;16268;49.880;8.648;2023-05-16T01:34:26;14.60;99.90
29241;DHT22;16268;49.880;8.648;2023-05-16T01:37:15;14.60;99.90
29241;DHT22;16268;49.880;8.648;2023-05-16T01:42:51;14.60;99.90
29241;DHT22;16268;49.880;8.648;2023-05-16T01:45:32;14.60;99.90
29241;DHT22;16268;49.880;8.648;2023-05-16T01:48:09;14.50;99.90
29241;DHT22;16268;49.880;8.648;2023-05-16T01:51:07;14.50;99.90
29241;DHT22;16268;49.880;8.648;2023-05-16T01:53:40;14.60;99.90
29241;DHT22;16268;49.880;8.648;2023-05-16T01:56:14;14.60;99.90
29241;DHT22;16268;49.880;8.648;2023-05-16T01:58:40;14.50;99.90
29241;DHT22;16268;49.880;8.648;2023-05-16T02:01:06;14.40;99.90
29241;DHT22;16268;49.880;8.648;2023-05-16T02:03:32;14.50;99.90
29241;DHT22;16268;49.880;8.648;2023-05-16T02:05:59;14.50;99.90
29241;DHT22;16268;49.880;8.648;2023-05-16T02:08:25;14.40;99.90
29241;DHT22;16268;49.880;8.648;2023-05-16T02:10:52;14.40;99.90
29241;DHT22;16268;49.880;8.648;2023-05-16T02:13:17;14.40;99.90
29241;DHT22;16268;49.880;8.648;2023-05-16T02:15:43;14.30;99.90
29241;DHT22;16268;49.880;8.648;2023-05-16T02:18:09;14.40;99.90
29241;DHT22;16268;49.880;8.648;2023-05-16T02:20:35;14.40;99.90
29241;DHT22;16268;49.880;8.648;2023-05-16T02:23:01;14.40;99.90
29241;DHT22;16268;49.880;8.648;2023-05-16T02:25:28;14.40;99.90
29241;DHT22;16268;49.880;8.648;2023-05-16T02:27:54;14.30;99.90
29241;DHT22;16268;49.880;8.648;2023-05-16T02:30:19;14.20;99.90
29241;DHT22;16268;49.880;8.648;2023-05-16T02:32:45;14.10;99.90
29241;DHT22;16268;49.880;8.648;2023-05-16T02:35:11;14.00;99.90
29241;DHT22;16268;49.880;8.648;2023-05-16T02:37:36;14.10;99.90
29241;DHT22;16268;49.880;8.648;2023-05-16T02:40:03;14.00;99.90
29241;DHT22;16268;49.880;8.648;2023-05-16T02:42:32;14.00;99.90
29241;DHT22;16268;49.880;8.648;2023-05-16T02:44:57;14.00;99.90
29241;DHT22;16268;49.880;8.648;2023-05-16T02:47:23;14.00;99.90
29241;DHT22;16268;49.880;8.648;2023-05-16T02:49:49;14.00;99.90
29241;DHT22;16268;49.880;8.648;2023-05-16T02:52:19;14.00;99.90
29241;DHT22;16268;49.880;8.648;2023-05-16T02:54:45;14.10;99.90
29241;DHT22;16268;49.880;8.648;2023-05-16T02:57:11;14.00;99.90
29241;DHT22;16268;49.880;8.648;2023-05-16T02:59:37;13.90;99.90
29241;DHT22;16268;49.880;8.648;2023-05-16T03:02:02;13.90;99.90
29241;DHT22;16268;49.880;8.648;2023-05-16T03:04:28;13.80;99.90
29241;DHT22;16268;49.880;8.648;2023-05-16T03:06:54;13.80;99.90
29241;DHT22;16268;49.880;8.648;2023-05-16T03:09:20;13.80;99.90
29241;DHT22;16268;49.880;8.648;2023-05-16T03:11:46;13.70;99.90
29241;DHT22;16268;49.880;8.648;2023-05-16T03:14:11;13.60;99.90
29241;DHT22;16268;49.880;8.648;2023-05-16T03:16:37;13.50;99.90
29241;DHT22;16268;49.880;8.648;2023-05-16T03:19:03;13.40;99.90
29241;DHT22;16268;49.880;8.648;2023-05-16T03:21:29;13.40;99.90
29241;DHT22;16268;49.880;8.648;2023-05-16T03:23:55;13.30;99.90
29241;DHT22;16268;49.880;8.648;2023-05-16T03:26:21;13.30;99.90
29241;DHT22;16268;49.880;8.648;2023-05-16T03:28:47;13.30;99.90
29241;DHT22;16268;49.880;8.648;2023-05-16T03:31:13;13.30;99.90
29241;DHT22;16268;49.880;8.648;2023-05-16T03:33:38;13.20;99.90
29241;DHT22;16268;49.880;8.648;2023-05-16T03:36:04;13.20;99.90
29241;DHT22;16268;49.880;8.648;2023-05-16T03:38:30;13.20;99.90
29241;DHT22;16268;49.880;8.648;2023-05-16T03:40:56;13.20;99.90
29241;DHT22;16268;49.880;8.648;2023-05-16T03:43:22;13.20;99.90
29241;DHT22;16268;49.880;8.648;2023-05-16T03:45:47;13.20;99.90
29241;DHT22;16268;49.880;8.648;2023-05-16T03:48:13;13.20;99.90
29241;DHT22;16268;49.880;8.648;2023-05-16T03:50:38;13.10;99.90
29241;DHT22;16268;49.880;8.648;2023-05-16T03:53:04;13.10;99.90
29241;DHT22;16268;49.880;8.648;2023-05-16T03:55:30;13.10;99.90
29241;DHT22;16268;49.880;8.648;2023-05-16T03:57:55;13.10;99.90
29241;DHT22;16268;49.880;8.648;2023-05-16T04:00:21;13.10;99.90
29241;DHT22;16268;49.880;8.648;2023-05-16T04:02:47;13.00;99.90
29241;DHT22;16268;49.880;8.648;2023-05-16T04:05:12;13.00;99.90
29241;DHT22;16268;49.880;8.648;2023-05-16T04:07:39;13.00;99.90
29241;DHT22;16268;49.880;8.648;2023-05-16T04:10:05;13.00;99.90
29241;DHT22;16268;49.880;8.648;2023-05-16T04:12:31;13.00;99.90
29241;DHT22;16268;49.880;8.648;2023-05-16T04:14:56;13.00;99.90
29241;DHT22;16268;49.880;8.648;2023-05-16T04:17:22;13.10;99.90
29241;DHT22;16268;49.880;8.648;2023-05-16T04:19:48;13.10;99.90
29241;DHT22;16268;49.880;8.648;2023-05-16T04:22:13;13.10;99.90
29241;DHT22;16268;49.880;8.648;2023-05-16T04:24:39;13.20;99.90
29241;DHT22;16268;49.880;8.648;2023-05-16T04:27:05;13.20;99.90
29241;DHT22;16268;49.880;8.648;2023-05-16T04:29:33;13.30;99.90
29241;DHT22;16268;49.880;8.648;2023-05-16T04:31:59;13.40;99.90
29241;DHT22;16268;49.880;8.648;2023-05-16T04:34:25;13.50;99.90
29241;DHT22;16268;49.880;8.648;2023-05-16T04:36:52;13.50;99.90
29241;DHT22;16268;49.880;8.648;2023-05-16T04:39:18;13.50;99.90
29241;DHT22;16268;49.880;8.648;2023-05-16T04:41:43;13.50;99.90
29241;DHT22;16268;49.880;8.648;2023-05-16T04:44:09;13.50;99.90
29241;DHT22;16268;49.880;8.648;2023-05-16T04:46:35;13.60;99.90
29241;DHT22;16268;49.880;8.648;2023-05-16T04:49:01;13.60;99.90
29241;DHT22;16268;49.880;8.648;2023-05-16T04:51:27;13.60;99.90
29241;DHT22;16268;49.880;8.648;2023-05-16T04:53:52;13.70;99.90
29241;DHT22;16268;49.880;8.648;2023-05-16T04:56:18;13.80;99.90
29241;DHT22;16268;49.880;8.648;2023-05-16T04:58:44;13.90;99.90
29241;DHT22;16268;49.880;8.648;2023-05-16T05:01:10;14.00;99.90
29241;DHT22;16268;49.880;8.648;2023-05-16T05:03:36;14.10;99.90
29241;DHT22;16268;49.880;8.648;2023-05-16T05:06:02;14.20;99.90
29241;DHT22;16268;49.880;8.648;2023-05-16T05:08:28;14.30;99.90
29241;DHT22;16268;49.880;8.648;2023-05-16T05:10:55;14.30;99.90
29241;DHT22;16268;49.880;8.648;2023-05-16T05:13:23;14.30;99.90
29241;DHT22;16268;49.880;8.648;2023-05-16T05:15:49;14.40;99.90
29241;DHT22;16268;49.880;8.648;2023-05-16T05:18:16;14.40;99.90
29241;DHT22;16268;49.880;8.648;2023-05-16T05:20:42;14.40;99.90
29241;DHT22;16268;49.880;8.648;2023-05-16T05:23:08;14.40;99.90
29241;DHT22;16268;49.880;8.648;2023-05-16T05:25:35;14.40;99.90
29241;DHT22;16268;49.880;8.648;2023-05-16T05:28:00;14.40;99.90
29241;DHT22;16268;49.880;8.648;2023-05-16T05:30:26;14.40;99.90
29241;DHT22;16268;49.880;8.648;2023-05-16T05:32:51;14.60;99.90
29241;DHT22;16268;49.880;8.648;2023-05-16T05:35:19;14.70;99.90
29241;DHT22;16268;49.880;8.648;2023-05-16T05:37:45;14.70;99.90
29241;DHT22;16268;49.880;8.648;2023-05-16T05:40:10;14.70;99.90
29241;DHT22;16268;49.880;8.648;2023-05-16T05:42:36;14.70;99.90
29241;DHT22;16268;49.880;8.648;2023-05-16T05:45:02;14.70;99.90
29241;DHT22;16268;49.880;8.648;2023-05-16T05:47:28;14.70;99.90
29241;DHT22;16268;49.880;8.648;2023-05-16T05:49:53;14.70;99.90
29241;DHT22;16268;49.880;8.648;2023-05-16T05:52:19;14.40;99.90
29241;DHT22;16268;49.880;8.648;2023-05-16T05:54:45;14.30;99.90
29241;DHT22;16268;49.880;8.648;2023-05-16T05:57:11;14.40;99.90
29241;DHT22;16268;49.880;8.648;2023-05-16T05:59:37;14.20;99.90
29241;DHT22;16268;49.880;8.648;2023-05-16T06:02:02;14.40;99.90
29241;DHT22;16268;49.880;8.648;2023-05-16T06:04:28;14.30;99.90
29241;DHT22;16268;49.880;8.648;2023-05-16T06:06:54;14.20;99.90
29241;DHT22;16268;49.880;8.648;2023-05-16T06:09:20;14.10;99.90
29241;DHT22;16268;49.880;8.648;2023-05-16T06:11:46;14.10;99.90
29241;DHT22;16268;49.880;8.648;2023-05-16T06:14:13;14.00;99.90
29241;DHT22;16268;49.880;8.648;2023-05-16T06:16:39;13.80;99.90
29241;DHT22;16268;49.880;8.648;2023-05-16T06:19:05;13.90;99.90
29241;DHT22;16268;49.880;8.648;2023-05-16T06:21:37;13.90;99.90
29241;DHT22;16268;49.880;8.648;2023-05-16T06:24:03;13.90;99.90
29241;DHT22;16268;49.880;8.648;2023-05-16T06:26:34;13.90;99.90
29241;DHT22;16268;49.880;8.648;2023-05-16T06:29:00;13.80;99.90
29241;DHT22;16268;49.880;8.648;2023-05-16T06:31:26;13.70;99.90
29241;DHT22;16268;49.880;8.648;2023-05-16T06:33:51;13.80;99.90
29241;DHT22;16268;49.880;8.648;2023-05-16T06:36:17;13.70;99.90
29241;DHT22;16268;49.880;8.648;2023-05-16T06:38:42;13.70;99.90
29241;DHT22;16268;49.880;8.648;2023-05-16T06:41:08;13.70;99.90
29241;DHT22;16268;49.880;8.648;2023-05-16T06:43:33;13.50;99.90
29241;DHT22;16268;49.880;8.648;2023-05-16T06:45:59;13.50;99.90
29241;DHT22;16268;49.880;8.648;2023-05-16T06:48:25;13.40;99.90
29241;DHT22;16268;49.880;8.648;2023-05-16T06:50:50;13.30;99.90
29241;DHT22;16268;49.880;8.648;2023-05-16T06:53:17;13.30;99.90
29241;DHT22;16268;49.880;8.648;2023-05-16T06:55:42;13.20;99.90
29241;DHT22;16268;49.880;8.648;2023-05-16T06:58:08;13.10;99.90
29241;DHT22;16268;49.880;8.648;2023-05-16T07:00:34;13.00;99.90
29241;DHT22;16268;49.880;8.648;2023-05-16T07:03:00;13.10;99.90
29241;DHT22;16268;49.880;8.648;2023-05-16T07:05:25;13.00;99.90
29241;DHT22;16268;49.880;8.648;2023-05-16T07:07:51;13.00;99.90
29241;DHT22;16268;49.880;8.648;2023-05-16T07:10:16;13.00;99.90
29241;DHT22;16268;49.880;8.648;2023-05-16T07:12:42;13.00;99.90
29241;DHT22;16268;49.880;8.648;2023-05-16T07:15:08;13.10;99.90
29241;DHT22;16268;49.880;8.648;2023-05-16T07:17:34;13.00;99.90
29241;DHT22;16268;49.880;8.648;2023-05-16T07:19:59;12.90;99.90
29241;DHT22;16268;49.880;8.648;2023-05-16T07:22:25;12.90;99.90
29241;DHT22;16268;49.880;8.648;2023-05-16T07:24:51;12.80;99.90
29241;DHT22;16268;49.880;8.648;2023-05-16T07:27:18;12.80;99.90
29241;DHT22;16268;49.880;8.648;2023-05-16T07:29:44;12.80;99.90
29241;DHT22;16268;49.880;8.648;2023-05-16T07:32:10;12.90;99.90
29241;DHT22;16268;49.880;8.648;2023-05-16T07:34:35;12.90;99.90
29241;DHT22;16268;49.880;8.648;2023-05-16T07:37:01;13.00;99.90
29241;DHT22;16268;49.880;8.648;2023-05-16T07:39:26;13.00;99.90
29241;DHT22;16268;49.880;8.648;2023-05-16T07:41:52;13.00;99.90
29241;DHT22;16268;49.880;8.648;2023-05-16T07:44:17;12.90;99.90
29241;DHT22;16268;49.880;8.648;2023-05-16T07:46:43;12.90;99.90
29241;DHT22;16268;49.880;8.648;2023-05-16T07:49:09;13.00;99.90
29241;DHT22;16268;49.880;8.648;2023-05-16T07:51:35;12.90;99.90
29241;DHT22;16268;49.880;8.648;2023-05-16T07:54:01;13.00;99.90
29241;DHT22;16268;49.880;8.648;2023-05-16T07:56:26;12.90;99.90
29241;DHT22;16268;49.880;8.648;2023-05-16T07:58:52;13.00;99.90
29241;DHT22;16268;49.880;8.648;2023-05-16T08:01:19;13.00;99.90
29241;DHT22;16268;49.880;8.648;2023-05-16T08:03:45;13.10;99.90
29241;DHT22;16268;49.880;8.648;2023-05-16T08:06:11;13.30;99.90
29241;DHT22;16268;49.880;8.648;2023-05-16T08:08:36;13.30;99.90
29241;DHT22;16268;49.880;8.648;2023-05-16T08:11:02;13.30;99.90
29241;DHT22;16268;49.880;8.648;2023-05-16T08:13:28;13.30;99.90
29241;DHT22;16268;49.880;8.648;2023-05-16T08:15:54;13.30;99.90
29241;DHT22;16268;49.880;8.648;2023-05-16T08:18:20;13.20;99.90
29241;DHT22;16268;49.880;8.648;2023-05-16T08:20:45;13.10;99.90
29241;DHT22;16268;49.880;8.648;2023-05-16T08:23:11;13.00;99.90
29241;DHT22;16268;49.880;8.648;2023-05-16T08:25:37;12.80;99.90
29241;DHT22;16268;49.880;8.648;2023-05-16T08:28:03;12.70;99.90
29241;DHT22;16268;49.880;8.648;2023-05-16T08:30:28;12.60;99.90
29241;DHT22;16268;49.880;8.648;2023-05-16T08:32:54;12.60;99.90
29241;DHT22;16268;49.880;8.648;2023-05-16T08:35:19;12.50;99.90
29241;DHT22;16268;49.880;8.648;2023-05-16T08:37:45;12.50;99.90
29241;DHT22;16268;49.880;8.648;2023-05-16T08:40:11;12.40;99.90
29241;DHT22;16268;49.880;8.648;2023-05-16T08:42:38;12.20;99.90
29241;DHT22;16268;49.880;8.648;2023-05-16T08:45:06;12.00;99.90
29241;DHT22;16268;49.880;8.648;2023-05-16T08:47:32;11.80;99.90
29241;DHT22;16268;49.880;8.648;2023-05-16T08:49:59;11.70;99.90
29241;DHT22;16268;49.880;8.648;2023-05-16T08:52:27;11.80;99.90
29241;DHT22;16268;49.880;8.648;2023-05-16T08:55:00;11.90;99.90
29241;DHT22;16268;49.880;8.648;2023-05-16T08:57:26;11.90;99.90
29241;DHT22;16268;49.880;8.648;2023-05-16T08:59:53;11.90;99.90
29241;DHT22;16268;49.880;8.648;2023-05-16T09:02:21;11.80;99.90
29241;DHT22;16268;49.880;8.648;2023-05-16T09:04:48;11.70;99.90
29241;DHT22;16268;49.880;8.648;2023-05-16T09:07:14;11.90;99.90
29241;DHT22;16268;49.880;8.648;2023-05-16T09:09:41;12.10;99.90
29241;DHT22;16268;49.880;8.648;2023-05-16T09:12:06;12.10;99.90
29241;DHT22;16268;49.880;8.648;2023-05-16T09:14:32;12.20;99.90
29241;DHT22;16268;49.880;8.648;2023-05-16T09:17:05;12.30;99.90
29241;DHT22;16268;49.880;8.648;2023-05-16T09:19:41;12.50;99.90
29241;DHT22;16268;49.880;8.648;2023-05-16T09:22:12;12.80;99.90
29241;DHT22;16268;49.880;8.648;2023-05-16T09:24:42;13.00;99.90
29241;DHT22;16268;49.880;8.648;2023-05-16T09:27:16;13.20;99.90
29241;DHT22;16268;49.880;8.648;2023-05-16T09:29:44;13.40;99.90
29241;DHT22;16268;49.880;8.648;2023-05-16T09:32:13;13.70;99.90
29241;DHT22;16268;49.880;8.648;2023-05-16T09:34:48;13.80;99.90
29241;DHT22;16268;49.880;8.648;2023-05-16T09:37:14;13.80;99.90
29241;DHT22;16268;49.880;8.648;2023-05-16T09:39:51;13.80;99.90
29241;DHT22;16268;49.880;8.648;2023-05-16T09:42:18;13.90;99.90
29241;DHT22;16268;49.880;8.648;2023-05-16T09:44:54;13.90;99.90
29241;DHT22;16268;49.880;8.648;2023-05-16T09:47:21;13.70;99.90
29241;DHT22;16268;49.880;8.648;2023-05-16T09:49:51;13.80;99.90
29241;DHT22;16268;49.880;8.648;2023-05-16T09:52:16;13.90;99.90
29241;DHT22;16268;49.880;8.648;2023-05-16T09:54:42;13.80;99.90
29241;DHT22;16268;49.880;8.648;2023-05-16T09:57:10;13.80;99.90
29241;DHT22;16268;49.880;8.648;2023-05-16T09:59:37;14.00;99.90
29241;DHT22;16268;49.880;8.648;2023-05-16T10:02:04;14.10;99.90
29241;DHT22;16268;49.880;8.648;2023-05-16T10:04:30;14.10;99.90
29241;DHT22;16268;49.880;8.648;2023-05-16T10:06:56;14.10;99.90
29241;DHT22;16268;49.880;8.648;2023-05-16T10:09:25;14.40;99.90
29241;DHT22;16268;49.880;8.648;2023-05-16T10:11:51;14.70;99.90
29241;DHT22;16268;49.880;8.648;2023-05-16T10:14:18;14.50;99.90
29241;DHT22;16268;49.880;8.648;2023-05-16T10:16:46;14.70;99.90
29241;DHT22;16268;49.880;8.648;2023-05-16T10:19:12;14.40;99.90
29241;DHT22;16268;49.880;8.648;2023-05-16T10:21:39;14.40;99.90
29241;DHT22;16268;49.880;8.648;2023-05-16T10:24:10;14.20;99.90
29241;DHT22;16268;49.880;8.648;2023-05-16T10:26:36;14.30;99.90
29241;DHT22;16268;49.880;8.648;2023-05-16T10:29:02;14.70;99.90
29241;DHT22;16268;49.880;8.648;2023-05-16T10:31:28;14.70;99.90
29241;DHT22;16268;49.880;8.648;2023-05-16T10:33:58;14.80;99.90
29241;DHT22;16268;49.880;8.648;2023-05-16T10:36:24;14.50;99.90
29241;DHT22;16268;49.880;8.648;2023-05-16T10:38:50;14.20;99.90
29241;DHT22;16268;49.880;8.648;2023-05-16T10:41:17;13.90;99.90
29241;DHT22;16268;49.880;8.648;2023-05-16T10:43:44;13.90;99.90
29241;DHT22;16268;49.880;8.648;2023-05-16T10:46:11;14.30;99.90
29241;DHT22;16268;49.880;8.648;2023-05-16T10:48:39;14.50;99.90
29241;DHT22;16268;49.880;8.648;2023-05-16T10:51:34;14.50;99.90
29241;DHT22;16268;49.880;8.648;2023-05-16T10:54:06;14.40;99.90
29241;DHT22;16268;49.880;8.648;2023-05-16T10:56:32;14.40;99.90
29241;DHT22;16268;49.880;8.648;2023-05-16T10:58:59;14.30;99.90
29241;DHT22;16268;49.880;8.648;2023-05-16T11:01:34;14.20;99.90
29241;DHT22;16268;49.880;8.648;2023-05-16T11:06:32;14.20;99.90
29241;DHT22;16268;49.880;8.648;2023-05-16T11:11:43;14.20;99.90
29241;DHT22;16268;49.880;8.648;2023-05-16T11:17:06;14.40;99.90
29241;DHT22;16268;49.880;8.648;2023-05-16T11:19:32;14.30;99.90
29241;DHT22;16268;49.880;8.648;2023-05-16T11:24:35;14.80;99.90
29241;DHT22;16268;49.880;8.648;2023-05-16T11:27:02;15.20;99.90
29241;DHT22;16268;49.880;8.648;2023-05-16T11:29:31;15.40;99.90
29241;DHT22;16268;49.880;8.648;2023-05-16T11:31:59;15.50;99.90
29241;DHT22;16268;49.880;8.648;2023-05-16T11:34:25;15.50;99.90
29241;DHT22;16268;49.880;8.648;2023-05-16T11:36:51;15.30;99.90
29241;DHT22;16268;49.880;8.648;2023-05-16T11:39:17;15.30;99.90
29241;DHT22;16268;49.880;8.648;2023-05-16T11:41:43;15.20;99.90
29241;DHT22;16268;49.880;8.648;2023-05-16T11:44:12;15.20;99.90
29241;DHT22;16268;49.880;8.648;2023-05-16T11:46:39;15.00;99.90
29241;DHT22;16268;49.880;8.648;2023-05-16T11:49:08;15.10;99.90
29241;DHT22;16268;49.880;8.648;2023-05-16T11:51:40;15.00;99.90
29241;DHT22;16268;49.880;8.648;2023-05-16T11:54:09;15.30;99.90
29241;DHT22;16268;49.880;8.648;2023-05-16T11:56:35;15.60;99.90
29241;DHT22;16268;49.880;8.648;2023-05-16T11:59:01;15.80;99.90
29241;DHT22;16268;49.880;8.648;2023-05-16T12:01:37;16.20;99.90
29241;DHT22;16268;49.880;8.648;2023-05-16T12:04:11;16.40;99.90
29241;DHT22;16268;49.880;8.648;2023-05-16T12:06:37;16.20;99.90
29241;DHT22;16268;49.880;8.648;2023-05-16T12:09:03;16.00;99.90
29241;DHT22;16268;49.880;8.648;2023-05-16T12:11:41;16.10;99.90
29241;DHT22;16268;49.880;8.648;2023-05-16T12:14:08;15.90;99.90
29241;DHT22;16268;49.880;8.648;2023-05-16T12:16:35;16.00;99.90
29241;DHT22;16268;49.880;8.648;2023-05-16T12:19:02;15.80;99.90
29241;DHT22;16268;49.880;8.648;2023-05-16T12:21:30;15.90;99.90
29241;DHT22;16268;49.880;8.648;2023-05-16T12:23:56;16.40;99.90
29241;DHT22;16268;49.880;8.648;2023-05-16T12:26:26;16.10;99.90
29241;DHT22;16268;49.880;8.648;2023-05-16T12:28:53;16.30;99.90
29241;DHT22;16268;49.880;8.648;2023-05-16T12:31:21;16.70;99.90
29241;DHT22;16268;49.880;8.648;2023-05-16T12:33:47;16.90;99.90
29241;DHT22;16268;49.880;8.648;2023-05-16T12:36:12;16.90;99.80
29241;DHT22;16268;49.880;8.648;2023-05-16T12:38:40;16.70;98.20
29241;DHT22;16268;49.880;8.648;2023-05-16T12:41:05;16.70;99.20
29241;DHT22;16268;49.880;8.648;2023-05-16T12:43:31;16.80;99.90
29241;DHT22;16268;49.880;8.648;2023-05-16T12:45:57;16.90;99.90
29241;DHT22;16268;49.880;8.648;2023-05-16T12:48:30;16.90;99.90
29241;DHT22;16268;49.880;8.648;2023-05-16T12:50:56;16.50;98.90
29241;DHT22;16268;49.880;8.648;2023-05-16T12:53:43;16.00;99.90
29241;DHT22;16268;49.880;8.648;2023-05-16T12:56:10;15.70;99.90
29241;DHT22;16268;49.880;8.648;2023-05-16T12:58:37;15.40;99.90
29241;DHT22;16268;49.880;8.648;2023-05-16T13:01:03;15.50;99.90
29241;DHT22;16268;49.880;8.648;2023-05-16T13:03:30;15.40;99.90
29241;DHT22;16268;49.880;8.648;2023-05-16T13:05:56;15.60;99.90
29241;DHT22;16268;49.880;8.648;2023-05-16T13:08:21;15.60;99.90
29241;DHT22;16268;49.880;8.648;2023-05-16T13:10:47;15.90;99.90
29241;DHT22;16268;49.880;8.648;2023-05-16T13:13:13;16.30;99.90
29241;DHT22;16268;49.880;8.648;2023-05-16T13:15:39;16.00;99.70
29241;DHT22;16268;49.880;8.648;2023-05-16T13:18:06;16.20;99.90
29241;DHT22;16268;49.880;8.648;2023-05-16T13:20:32;16.60;99.90
29241;DHT22;16268;49.880;8.648;2023-05-16T13:22:57;16.70;99.50
29241;DHT22;16268;49.880;8.648;2023-05-16T13:25:23;17.20;99.90
29241;DHT22;16268;49.880;8.648;2023-05-16T13:27:48;17.30;97.80
29241;DHT22;16268;49.880;8.648;2023-05-16T13:30:14;16.70;94.50
29241;DHT22;16268;49.880;8.648;2023-05-16T13:32:40;16.40;94.10
29241;DHT22;16268;49.880;8.648;2023-05-16T13:35:07;16.40;93.00
29241;DHT22;16268;49.880;8.648;2023-05-16T13:37:34;16.70;93.50
29241;DHT22;16268;49.880;8.648;2023-05-16T13:40:00;16.80;92.10
29241;DHT22;16268;49.880;8.648;2023-05-16T13:42:26;16.70;91.50
29241;DHT22;16268;49.880;8.648;2023-05-16T13:44:51;16.60;93.10
29241;DHT22;16268;49.880;8.648;2023-05-16T13:47:17;16.50;93.10
29241;DHT22;16268;49.880;8.648;2023-05-16T13:49:43;16.70;93.30
29241;DHT22;16268;49.880;8.648;2023-05-16T13:52:08;16.90;90.80
29241;DHT22;16268;49.880;8.648;2023-05-16T13:54:34;17.20;90.50
29241;DHT22;16268;49.880;8.648;2023-05-16T13:56:59;17.30;88.90
29241;DHT22;16268;49.880;8.648;2023-05-16T13:59:26;17.50;86.30
29241;DHT22;16268;49.880;8.648;2023-05-16T14:01:52;17.70;85.00
29241;DHT22;16268;49.880;8.648;2023-05-16T14:04:17;17.70;85.60
29241;DHT22;16268;49.880;8.648;2023-05-16T14:06:43;17.50;83.20
29241;DHT22;16268;49.880;8.648;2023-05-16T14:09:08;17.00;81.60
29241;DHT22;16268;49.880;8.648;2023-05-16T14:11:34;17.00;84.60
29241;DHT22;16268;49.880;8.648;2023-05-16T14:13:59;17.20;83.90
29241;DHT22;16268;49.880;8.648;2023-05-16T14:16:25;16.90;82.80
29241;DHT22;16268;49.880;8.648;2023-05-16T14:18:51;17.00;82.90
29241;DHT22;16268;49.880;8.648;2023-05-16T14:21:16;16.70;82.40
29241;DHT22;16268;49.880;8.648;2023-05-16T14:23:42;16.70;82.80
29241;DHT22;16268;49.880;8.648;2023-05-16T14:26:07;16.50;81.20
29241;DHT22;16268;49.880;8.648;2023-05-16T14:28:33;16.70;81.10
29241;DHT22;16268;49.880;8.648;2023-05-16T14:30:59;16.60;80.20
29241;DHT22;16268;49.880;8.648;2023-05-16T14:33:25;16.80;81.40
29241;DHT22;16268;49.880;8.648;2023-05-16T14:35:51;16.80;80.10
29241;DHT22;16268;49.880;8.648;2023-05-16T14:38:17;16.90;81.60
29241;DHT22;16268;49.880;8.648;2023-05-16T14:41:20;17.00;80.10
29241;DHT22;16268;49.880;8.648;2023-05-16T14:43:46;17.10;79.60
29241;DHT22;16268;49.880;8.648;2023-05-16T14:46:12;17.20;78.80
29241;DHT22;16268;49.880;8.648;2023-05-16T14:48:38;17.20;78.90
29241;DHT22;16268;49.880;8.648;2023-05-16T14:51:04;17.20;78.50
29241;DHT22;16268;49.880;8.648;2023-05-16T14:53:30;17.10;80.90
29241;DHT22;16268;49.880;8.648;2023-05-16T14:55:55;17.20;80.00
29241;DHT22;16268;49.880;8.648;2023-05-16T14:58:21;17.10;77.80
29241;DHT22;16268;49.880;8.648;2023-05-16T15:00:48;16.90;78.60
29241;DHT22;16268;49.880;8.648;2023-05-16T15:03:15;16.70;78.80
29241;DHT22;16268;49.880;8.648;2023-05-16T15:05:41;16.60;80.00
29241;DHT22;16268;49.880;8.648;2023-05-16T15:08:06;16.50;80.00
29241;DHT22;16268;49.880;8.648;2023-05-16T15:10:32;16.40;79.00
29241;DHT22;16268;49.880;8.648;2023-05-16T15:12:57;16.30;78.50
29241;DHT22;16268;49.880;8.648;2023-05-16T15:15:23;16.20;77.50
29241;DHT22;16268;49.880;8.648;2023-05-16T15:17:48;16.20;77.20
29241;DHT22;16268;49.880;8.648;2023-05-16T15:20:14;16.10;77.10
29241;DHT22;16268;49.880;8.648;2023-05-16T15:22:40;16.10;77.90
29241;DHT22;16268;49.880;8.648;2023-05-16T15:25:06;16.40;79.10
29241;DHT22;16268;49.880;8.648;2023-05-16T15:27:32;16.70;80.50
29241;DHT22;16268;49.880;8.648;2023-05-16T15:29:58;16.90;78.10
29241;DHT22;16268;49.880;8.648;2023-05-16T15:32:24;17.00;77.20
29241;DHT22;16268;49.880;8.648;2023-05-16T15:34:50;17.00;77.00
29241;DHT22;16268;49.880;8.648;2023-05-16T15:37:16;17.10;74.60
29241;DHT22;16268;49.880;8.648;2023-05-16T15:39:41;17.10;74.00
29241;DHT22;16268;49.880;8.648;2023-05-16T15:42:07;17.00;74.60
29241;DHT22;16268;49.880;8.648;2023-05-16T15:44:33;16.80;74.50